Portada
METAR-TAF:

METAR-TAF

Aeroports :

Tak, Tailàndia

latitud: 16-53N, longitud: 099-09E, altitud: 121 m

METAR: manca

Hora: 08:14 (01:14 UTC)

Pronòstic

L'informe es va fer fa 2 hores i 14 minuts, a les 23:00 UTC
Pronòstic vàlid del 14 a les 00 UTC al 14 a les 24 UTC
Vent 5 kt del Est/Nord-Est
Visibilitat: 4000 m
Núvols disperses a una alçada de 2500 ft
boirina
Evolucionant progressivament
l' 14 a les 01 UTC al 14 a les 03 UTC
Visibilitat: 8000 m

TAF: VTPT 132300Z 1400/1424 06005KT 4000 BR SCT025 BECMG 1401/1403 8000 NSW

Observacions i pronòstics meteorològics de més de 4000 aeroports (METAR i TAF).

Les estacions disponibles són els punts grocs i vermells al mapa.

Posi el ratolí al punt desitjat per veure el nom de l'estació.

Feu clic per veure les observacions i els pronòstics meteorològics.

Per canviar el mapa: feu clic els botons verds amb una creu de color negre per apropar; al botó verd amb un guió per allunyar la imatge; o en les fletxes verdes per a mapes adjacents.


METAR-TAF: